Time;durP1;ratioP1;P1;durP2;ratioP2;P2;SDS_P1;SDS_P2;PMS_P1;PMS_P2;Temp;Humidity;BMP_temperature;BMP_pressure;BME280_temperature;BME280_humidity;BME280_pressure;Samples;Min_cycle;Max_cycle;Signal;HPM_P1;HPM_P2
2023/05/30 00:00:28;;;;;;;7.22;4.70;;;18.30;99.90;;;;;;5051847;28;20617;-47
2023/05/30 00:02:54;;;;;;;7.57;4.03;;;18.40;99.90;;;;;;5054223;28;20025;-48
2023/05/30 00:05:20;;;;;;;6.15;3.38;;;18.30;99.90;;;;;;5036883;28;20040;-49
2023/05/30 00:07:46;;;;;;;6.72;4.53;;;18.20;99.90;;;;;;5056262;28;20108;-48
2023/05/30 00:10:12;;;;;;;8.50;5.68;;;18.10;99.90;;;;;;5037025;28;20141;-50
2023/05/30 00:12:40;;;;;;;5.82;3.40;;;18.10;99.90;;;;;;5055746;28;20085;-50
2023/05/30 00:15:07;;;;;;;4.45;3.42;;;18.00;99.90;;;;;;5055885;28;20473;-46
2023/05/30 00:17:35;;;;;;;5.97;3.78;;;17.90;99.90;;;;;;5055648;28;20564;-47
2023/05/30 00:20:03;;;;;;;5.72;3.63;;;17.90;99.90;;;;;;5055759;28;20040;-47
2023/05/30 00:22:29;;;;;;;5.15;3.15;;;17.80;99.90;;;;;;5036638;28;20068;-48
2023/05/30 00:24:59;;;;;;;7.40;4.25;;;17.80;99.90;;;;;;5055411;28;20028;-47
2023/05/30 00:27:25;;;;;;;6.78;4.22;;;17.80;99.90;;;;;;5055393;28;20158;-47
2023/05/30 00:29:51;;;;;;;6.70;3.92;;;17.80;99.90;;;;;;5055328;28;20353;-51
2023/05/30 00:32:17;;;;;;;7.90;4.90;;;17.80;99.90;;;;;;5055260;28;20028;-50
2023/05/30 00:34:42;;;;;;;7.57;5.00;;;17.90;99.90;;;;;;5055310;28;20039;-51
2023/05/30 00:37:08;;;;;;;9.75;4.05;;;17.80;99.90;;;;;;5069736;28;20080;-49
2023/05/30 00:39:35;;;;;;;7.35;4.45;;;17.80;99.90;;;;;;5055022;28;20609;-47
2023/05/30 00:42:02;;;;;;;6.53;3.95;;;17.70;99.90;;;;;;5055008;28;20041;-46
2023/05/30 00:44:28;;;;;;;5.68;4.00;;;17.70;99.90;;;;;;5055092;28;20419;-46
2023/05/30 00:46:54;;;;;;;7.03;4.10;;;17.70;99.90;;;;;;5055437;28;20025;-47
2023/05/30 00:49:21;;;;;;;7.30;5.03;;;17.70;99.90;;;;;;5055058;28;20021;-48
2023/05/30 00:51:47;;;;;;;7.97;4.70;;;17.60;99.90;;;;;;5054806;28;20057;-49
2023/05/30 00:54:13;;;;;;;7.25;4.35;;;17.60;99.90;;;;;;5055332;28;20698;-46
2023/05/30 00:56:40;;;;;;;6.43;4.20;;;17.50;99.90;;;;;;5054633;28;20071;-49
2023/05/30 00:59:05;;;;;;;8.73;4.22;;;17.40;99.90;;;;;;5054891;28;20461;-47
2023/05/30 01:01:32;;;;;;;7.47;4.65;;;17.40;99.90;;;;;;5054960;28;20037;-48
2023/05/30 01:03:59;;;;;;;7.47;4.30;;;17.50;99.90;;;;;;5054797;28;20040;-49
2023/05/30 01:06:27;;;;;;;8.77;4.13;;;17.50;99.90;;;;;;5055011;28;20056;-49
2023/05/30 01:08:54;;;;;;;5.70;4.13;;;17.60;99.90;;;;;;5054870;28;20033;-48
2023/05/30 01:11:36;;;;;;;6.47;3.90;;;17.60;99.90;;;;;;5054757;28;20029;-51
2023/05/30 01:14:06;;;;;;;;;;;17.60;99.90;;;;;;5054575;28;20380;-46
2023/05/30 01:16:39;;;;;;;6.95;4.60;;;17.60;99.90;;;;;;5054527;28;19915;-47
2023/05/30 01:19:23;;;;;;;6.63;3.80;;;17.60;99.90;;;;;;5054856;28;20095;-46
2023/05/30 01:21:59;;;;;;;6.35;3.33;;;17.60;99.90;;;;;;5054414;28;20041;-49
2023/05/30 01:24:38;;;;;;;7.78;4.57;;;17.60;99.90;;;;;;5054281;28;20025;-46
2023/05/30 01:27:36;;;;;;;7.63;4.05;;;17.60;99.90;;;;;;5054609;28;20036;-46
2023/05/30 01:30:03;;;;;;;9.18;4.00;;;17.60;99.90;;;;;;5053704;28;20025;-47
2023/05/30 01:32:30;;;;;;;6.70;3.97;;;17.50;99.90;;;;;;5054404;28;20065;-51
2023/05/30 01:34:57;;;;;;;6.35;3.95;;;17.60;99.90;;;;;;5054088;28;20035;-49
2023/05/30 01:37:23;;;;;;;5.93;3.83;;;17.60;99.90;;;;;;5054188;28;20033;-46
2023/05/30 01:39:49;;;;;;;12.93;4.30;;;17.60;99.90;;;;;;5068911;28;20060;-46
2023/05/30 01:42:28;;;;;;;4.78;3.80;;;17.60;99.90;;;;;;5054607;28;20090;-47
2023/05/30 01:45:14;;;;;;;5.85;4.25;;;17.60;99.90;;;;;;5054231;28;20029;-47
2023/05/30 01:47:52;;;;;;;7.57;4.07;;;17.60;99.90;;;;;;5054037;28;20116;-48
2023/05/30 01:50:22;;;;;;;6.53;4.45;;;17.60;99.90;;;;;;5051708;28;20140;-49
2023/05/30 01:52:54;;;;;;;6.43;4.10;;;17.60;99.90;;;;;;5053796;28;20484;-46
2023/05/30 01:55:24;;;;;;;6.22;4.10;;;17.60;99.90;;;;;;5053827;28;20036;-49
2023/05/30 01:57:50;;;;;;;5.97;3.83;;;17.60;99.90;;;;;;5053773;28;20032;-46
2023/05/30 02:00:17;;;;;;;6.68;3.78;;;17.70;99.90;;;;;;5053684;28;20029;-47
2023/05/30 02:02:43;;;;;;;9.10;4.72;;;17.50;99.90;;;;;;5053559;28;20043;-47
2023/05/30 02:05:09;;;;;;;6.63;4.20;;;17.60;99.90;;;;;;5053324;28;20025;-48
2023/05/30 02:07:35;;;;;;;5.60;4.18;;;17.60;99.90;;;;;;5053897;28;20055;-49
2023/05/30 02:10:01;;;;;;;6.25;4.40;;;17.50;99.90;;;;;;5054018;28;20072;-48
2023/05/30 02:12:27;;;;;;;5.22;3.70;;;17.60;99.90;;;;;;5053743;28;20021;-48
2023/05/30 02:14:54;;;;;;;6.70;4.00;;;17.50;99.90;;;;;;5053774;28;20086;-48
2023/05/30 02:17:21;;;;;;;7.50;3.90;;;17.50;99.90;;;;;;5053424;28;20037;-49
2023/05/30 02:19:50;;;;;;;5.93;4.03;;;17.50;99.90;;;;;;5053436;28;20017;-48
2023/05/30 02:22:17;;;;;;;5.43;3.95;;;17.50;99.90;;;;;;5053395;28;20068;-47
2023/05/30 02:24:42;;;;;;;6.78;4.65;;;17.60;99.90;;;;;;5017207;28;20419;-51
2023/05/30 02:27:09;;;;;;;6.10;4.30;;;17.60;99.90;;;;;;5051982;28;20132;-48
2023/05/30 02:29:35;;;;;;;8.00;4.40;;;17.60;99.90;;;;;;5053309;28;20047;-49
2023/05/30 02:32:01;;;;;;;6.85;4.75;;;17.60;99.90;;;;;;5053145;28;20408;-47
2023/05/30 02:34:26;;;;;;;7.55;4.00;;;17.60;99.90;;;;;;5052993;28;20029;-48
2023/05/30 02:36:52;;;;;;;5.32;3.90;;;17.60;99.90;;;;;;5001224;28;20056;-48
2023/05/30 02:39:18;;;;;;;6.22;4.55;;;17.60;99.90;;;;;;5051751;28;20064;-50
2023/05/30 02:41:44;;;;;;;9.98;3.88;;;17.50;99.90;;;;;;5053107;28;20473;-47
2023/05/30 02:44:09;;;;;;;6.75;4.38;;;17.60;99.90;;;;;;5052740;28;20024;-51
2023/05/30 02:46:35;;;;;;;6.68;3.65;;;17.60;99.90;;;;;;5053175;28;20031;-48
2023/05/30 02:49:02;;;;;;;5.63;4.15;;;17.60;99.90;;;;;;5050546;28;20033;-48
2023/05/30 02:51:28;;;;;;;8.00;4.78;;;17.60;99.90;;;;;;5034059;28;20540;-47
2023/05/30 02:53:54;;;;;;;6.38;4.03;;;17.60;99.90;;;;;;5017539;28;20480;-49
2023/05/30 02:56:22;;;;;;;7.13;4.57;;;17.60;99.90;;;;;;5033939;28;20063;-48
2023/05/30 02:58:49;;;;;;;5.63;3.92;;;17.50;99.90;;;;;;5052722;28;20107;-47
2023/05/30 03:01:15;;;;;;;6.72;4.30;;;17.60;99.90;;;;;;5052375;28;20033;-46
2023/05/30 03:03:42;;;;;;;6.70;4.15;;;17.60;99.90;;;;;;5053027;28;20032;-51
2023/05/30 03:06:08;;;;;;;7.85;4.07;;;17.60;99.90;;;;;;5034149;28;20041;-49
2023/05/30 03:08:36;;;;;;;7.03;4.28;;;17.60;99.90;;;;;;5033661;28;20075;-49
2023/05/30 03:11:01;;;;;;;6.60;3.72;;;17.60;99.90;;;;;;5052784;28;20044;-48
2023/05/30 03:13:27;;;;;;;5.63;3.75;;;17.60;99.90;;;;;;5052487;28;20488;-48
2023/05/30 03:15:53;;;;;;;7.00;4.07;;;17.60;99.90;;;;;;5033806;28;20041;-47
2023/05/30 03:18:19;;;;;;;5.30;3.88;;;17.60;99.90;;;;;;5052249;28;20035;-50
2023/05/30 03:20:44;;;;;;;5.75;4.03;;;17.70;99.90;;;;;;5052242;28;20051;-49
2023/05/30 03:23:10;;;;;;;5.68;3.72;;;17.70;99.90;;;;;;5033587;28;20044;-47
2023/05/30 03:25:36;;;;;;;5.90;4.07;;;17.70;99.90;;;;;;5051867;28;20025;-48
2023/05/30 03:28:06;;;;;;;6.18;4.05;;;17.70;99.90;;;;;;5066705;28;20029;-48
2023/05/30 03:30:32;;;;;;;6.25;3.70;;;17.70;99.90;;;;;;5033820;28;20071;-47
2023/05/30 03:32:58;;;;;;;7.47;4.07;;;17.80;99.90;;;;;;5033529;28;20480;-48
2023/05/30 03:35:24;;;;;;;6.05;3.90;;;17.70;99.90;;;;;;5033196;28;20044;-46
2023/05/30 03:37:50;;;;;;;8.15;4.47;;;17.80;99.90;;;;;;5052471;28;20029;-49
2023/05/30 03:40:17;;;;;;;6.88;4.10;;;17.90;99.90;;;;;;5051936;28;20029;-47
2023/05/30 03:42:43;;;;;;;5.65;3.67;;;17.80;99.90;;;;;;5051993;28;20500;-47
2023/05/30 03:45:09;;;;;;;5.75;4.20;;;17.90;99.90;;;;;;5051975;28;20040;-49
2023/05/30 03:47:35;;;;;;;6.03;3.95;;;17.90;99.90;;;;;;5052102;28;20032;-47
2023/05/30 03:50:01;;;;;;;5.88;4.20;;;18.00;99.90;;;;;;5033190;28;20045;-48
2023/05/30 03:52:27;;;;;;;6.97;4.22;;;17.90;99.90;;;;;;5051955;28;20392;-49
2023/05/30 03:54:53;;;;;;;6.95;3.90;;;17.90;99.90;;;;;;5066566;28;20095;-47
2023/05/30 03:57:19;;;;;;;5.70;3.78;;;18.00;99.90;;;;;;5066443;28;20060;-47
2023/05/30 03:59:45;;;;;;;5.45;3.70;;;18.00;99.90;;;;;;5051891;28;20025;-48
2023/05/30 04:02:11;;;;;;;7.82;4.28;;;17.80;99.90;;;;;;5051815;28;20029;-50
2023/05/30 04:04:37;;;;;;;6.70;3.72;;;17.80;99.90;;;;;;5051528;28;20025;-47
2023/05/30 04:07:03;;;;;;;7.07;4.65;;;17.80;99.90;;;;;;5051308;28;20120;-48
2023/05/30 04:09:29;;;;;;;6.47;4.22;;;17.80;99.90;;;;;;5032593;28;20113;-47
2023/05/30 04:11:54;;;;;;;6.68;4.40;;;17.80;99.90;;;;;;5035622;28;20044;-49
2023/05/30 04:14:20;;;;;;;6.28;4.30;;;17.90;99.90;;;;;;5039932;28;20505;-46
2023/05/30 04:16:46;;;;;;;4.90;3.30;;;17.90;99.90;;;;;;5051613;28;20032;-47
2023/05/30 04:19:11;;;;;;;7.03;3.60;;;17.90;99.90;;;;;;5049698;28;20037;-46
2023/05/30 04:21:37;;;;;;;6.95;4.38;;;17.90;99.90;;;;;;5032422;28;20083;-47
2023/05/30 04:24:04;;;;;;;7.28;4.45;;;18.00;99.90;;;;;;5051617;28;20025;-50
2023/05/30 04:26:31;;;;;;;6.28;4.13;;;18.00;99.90;;;;;;5039575;28;20034;-47
2023/05/30 04:28:57;;;;;;;6.32;4.40;;;18.00;99.90;;;;;;5031585;28;20033;-49
2023/05/30 04:31:24;;;;;;;6.95;3.83;;;18.00;99.90;;;;;;5033394;28;20025;-47
2023/05/30 04:33:55;;;;;;;6.13;3.80;;;18.10;99.90;;;;;;5051149;28;20033;-47
2023/05/30 04:36:21;;;;;;;6.85;3.97;;;18.20;99.90;;;;;;5044651;28;20033;-48
2023/05/30 04:38:52;;;;;;;5.97;3.88;;;18.20;99.90;;;;;;5034311;28;20037;-48
2023/05/30 04:41:20;;;;;;;5.23;4.10;;;18.30;99.90;;;;;;5040225;28;20041;-49
2023/05/30 04:43:54;;;;;;;9.75;4.00;;;18.30;99.90;;;;;;5040700;28;20551;-49
2023/05/30 04:46:23;;;;;;;4.88;3.75;;;18.40;99.90;;;;;;5040789;28;20104;-50
2023/05/30 04:48:52;;;;;;;5.25;3.25;;;18.30;99.90;;;;;;5047329;28;20507;-46
2023/05/30 04:51:22;;;;;;;5.43;3.78;;;18.40;99.90;;;;;;5047876;28;20885;-50
2023/05/30 04:53:49;;;;;;;5.90;3.90;;;18.40;99.90;;;;;;5044046;28;20473;-47
2023/05/30 04:56:15;;;;;;;5.60;4.30;;;18.40;99.90;;;;;;5042512;28;20026;-48
2023/05/30 04:58:41;;;;;;;7.78;4.00;;;18.50;99.90;;;;;;5046737;28;20024;-56
2023/05/30 05:01:09;;;;;;;5.60;3.60;;;18.50;99.90;;;;;;5044410;28;20029;-50
2023/05/30 05:03:38;;;;;;;5.90;4.20;;;18.40;99.90;;;;;;5016089;28;20052;-49
2023/05/30 05:06:06;;;;;;;6.53;3.85;;;18.50;99.90;;;;;;5018819;28;20492;-48
2023/05/30 05:08:33;;;;;;;4.80;3.25;;;18.40;99.90;;;;;;5054701;28;20033;-47
2023/05/30 05:11:02;;;;;;;4.60;3.47;;;18.40;99.90;;;;;;5054747;28;20037;-49
2023/05/30 05:13:27;;;;;;;4.18;3.35;;;18.40;99.90;;;;;;5052443;28;20021;-47
2023/05/30 05:15:53;;;;;;;6.07;3.53;;;18.60;99.90;;;;;;5017345;28;20033;-48
2023/05/30 05:18:19;;;;;;;4.32;3.65;;;18.70;99.90;;;;;;5042193;28;20033;-45
2023/05/30 05:20:45;;;;;;;5.30;3.63;;;18.80;99.90;;;;;;5053971;28;20042;-48
2023/05/30 05:23:11;;;;;;;4.90;3.63;;;18.80;99.90;;;;;;4997039;28;20091;-46
2023/05/30 05:25:37;;;;;;;6.28;4.18;;;18.90;99.90;;;;;;5024358;28;20025;-46
2023/05/30 05:28:02;;;;;;;6.28;4.20;;;19.10;99.90;;;;;;5037043;28;20025;-48
2023/05/30 05:30:28;;;;;;;5.78;3.67;;;19.20;99.90;;;;;;5034677;28;20037;-47
2023/05/30 05:32:54;;;;;;;7.53;4.40;;;19.20;99.90;;;;;;5034067;28;20071;-47
2023/05/30 05:35:20;;;;;;;4.80;3.53;;;19.40;99.90;;;;;;5034469;28;20109;-48
2023/05/30 05:37:45;;;;;;;7.85;3.58;;;19.50;99.90;;;;;;5034100;28;20083;-48
2023/05/30 05:40:13;;;;;;;4.45;3.10;;;19.40;99.90;;;;;;5034524;28;20057;-48
2023/05/30 05:42:38;;;;;;;7.22;4.13;;;19.50;99.90;;;;;;5015479;28;20095;-47
2023/05/30 05:45:05;;;;;;;5.93;3.72;;;19.50;99.90;;;;;;5034012;28;20029;-47
2023/05/30 05:47:30;;;;;;;6.35;3.50;;;19.50;99.90;;;;;;5034248;28;20057;-47
2023/05/30 05:49:56;;;;;;;5.03;3.45;;;19.50;99.90;;;;;;5033951;28;20036;-47
2023/05/30 05:52:22;;;;;;;4.50;3.47;;;19.50;99.90;;;;;;5034122;28;20025;-46
2023/05/30 05:54:47;;;;;;;6.32;3.70;;;19.60;99.90;;;;;;5015376;28;20037;-46
2023/05/30 05:57:13;;;;;;;5.28;3.50;;;19.70;99.90;;;;;;5034030;28;20036;-46
2023/05/30 05:59:39;;;;;;;6.15;4.20;;;19.70;99.90;;;;;;5014871;28;20064;-47
2023/05/30 06:02:05;;;;;;;6.00;3.42;;;19.70;99.90;;;;;;5033613;28;20052;-47
2023/05/30 06:04:31;;;;;;;5.03;3.88;;;19.60;99.90;;;;;;5015385;28;20111;-47
2023/05/30 06:06:57;;;;;;;5.90;3.88;;;19.80;99.90;;;;;;5033764;28;20657;-47
2023/05/30 06:09:24;;;;;;;5.28;3.35;;;20.00;99.90;;;;;;5033826;28;20109;-48
2023/05/30 06:11:50;;;;;;;5.82;4.05;;;20.10;99.90;;;;;;5034193;28;20036;-47
2023/05/30 06:14:16;;;;;;;5.18;3.67;;;20.10;99.90;;;;;;5033957;28;20104;-47
2023/05/30 06:16:42;;;;;;;6.70;3.72;;;;;;;;;;5033708;28;20057;-46
2023/05/30 06:19:08;;;;;;;5.63;3.30;;;;;;;;;;5031729;28;20424;-46
2023/05/30 06:21:35;;;;;;;6.32;3.38;;;;;;;;;;5033660;28;20038;-47
2023/05/30 06:24:03;;;;;;;4.00;2.88;;;;;;;;;;5033366;28;20037;-46
2023/05/30 06:26:29;;;;;;;4.00;2.88;;;20.80;99.90;;;;;;5033190;28;20080;-46
2023/05/30 06:28:54;;;;;;;5.15;3.55;;;20.80;99.90;;;;;;5033301;28;20061;-47
2023/05/30 06:31:20;;;;;;;6.80;3.72;;;20.80;99.90;;;;;;5033438;28;20432;-47
2023/05/30 06:33:46;;;;;;;6.95;3.78;;;;;;;;;;5014756;28;20048;-46
2023/05/30 06:36:12;;;;;;;4.95;3.20;;;21.30;99.90;;;;;;5031138;28;20038;-48
2023/05/30 06:38:38;;;;;;;5.00;3.35;;;21.30;99.90;;;;;;5014712;28;20029;-46
2023/05/30 06:41:04;;;;;;;5.47;3.55;;;;;;;;;;5033223;28;20369;-47
2023/05/30 06:43:29;;;;;;;3.97;3.22;;;21.30;99.90;;;;;;5033091;28;20025;-47
2023/05/30 06:45:55;;;;;;;4.72;3.40;;;21.40;99.90;;;;;;5033539;28;20392;-48
2023/05/30 06:48:21;;;;;;;3.13;2.75;;;21.40;99.90;;;;;;5032965;28;20025;-47
2023/05/30 06:50:47;;;;;;;3.83;2.83;;;21.60;99.90;;;;;;5030898;28;20176;-48
2023/05/30 06:53:13;;;;;;;5.22;3.20;;;;;;;;;;5014343;28;20187;-48
2023/05/30 06:55:38;;;;;;;4.18;3.33;;;21.90;99.90;;;;;;5030841;28;20566;-46
2023/05/30 06:58:05;;;;;;;4.40;3.08;;;22.00;99.90;;;;;;5014253;28;20065;-47
2023/05/30 07:00:31;;;;;;;4.55;3.00;;;22.40;99.90;;;;;;5032827;28;20045;-47
2023/05/30 07:02:57;;;;;;;5.93;3.65;;;22.70;99.90;;;;;;5032725;28;20064;-47
2023/05/30 07:05:22;;;;;;;4.80;3.45;;;22.70;99.90;;;;;;5032976;28;21105;-47
2023/05/30 07:07:48;;;;;;;4.78;3.05;;;22.80;99.90;;;;;;5014091;28;20041;-46
2023/05/30 07:10:15;;;;;;;3.88;3.08;;;22.80;99.90;;;;;;5032158;28;20025;-47
2023/05/30 07:12:41;;;;;;;5.63;3.70;;;;;;;;;;5032604;28;20041;-47
2023/05/30 07:15:08;;;;;;;4.85;3.05;;;23.30;99.90;;;;;;4981401;28;20029;-47
2023/05/30 07:17:34;;;;;;;4.55;3.30;;;23.40;99.90;;;;;;5013841;28;20057;-47
2023/05/30 07:20:00;;;;;;;4.05;2.95;;;23.40;99.90;;;;;;5014043;28;20068;-46
2023/05/30 07:22:26;;;;;;;4.07;2.88;;;;;;;;;;5032189;28;20034;-47
2023/05/30 07:24:52;;;;;;;4.72;3.03;;;;;;;;;;5035931;28;20039;-47
2023/05/30 07:27:19;;;;;;;7.70;3.15;;;;;;;;;;5052292;28;20052;-49
2023/05/30 07:29:45;;;;;;;4.72;2.67;;;;;;;;;;5052218;28;20111;-48
2023/05/30 07:32:12;;;;;;;4.38;2.80;;;;;;;;;;5049909;28;20065;-48
2023/05/30 07:34:39;;;;;;;5.70;3.15;;;;;;;;;;5033333;28;20041;-48
2023/05/30 07:37:05;;;;;;;6.72;4.13;;;;;;;;;;5052226;28;20503;-48
2023/05/30 07:39:31;;;;;;;4.30;3.10;;;23.70;99.90;;;;;;5051806;28;20068;-47
2023/05/30 07:41:56;;;;;;;4.10;3.03;;;23.60;99.90;;;;;;5051811;28;20499;-48
2023/05/30 07:44:22;;;;;;;3.65;2.85;;;23.60;99.90;;;;;;5051918;28;20029;-47
2023/05/30 07:46:49;;;;;;;4.57;3.10;;;;;;;;;;5033205;28;20065;-49
2023/05/30 07:49:15;;;;;;;5.07;3.83;;;;;;;;;;5049312;28;20053;-47
2023/05/30 07:51:40;;;;;;;5.60;3.30;;;24.50;99.90;;;;;;5015625;28;20053;-49
2023/05/30 07:54:06;;;;;;;4.65;3.25;;;;;;;;;;5003324;28;20386;-51
2023/05/30 07:56:32;;;;;;;5.38;3.30;;;;;;;;;;5012395;28;20096;-49
2023/05/30 07:58:58;;;;;;;4.82;3.15;;;25.10;99.90;;;;;;5026211;28;20065;-49
2023/05/30 08:01:24;;;;;;;5.30;3.17;;;24.90;99.90;;;;;;5010554;28;20438;-51
2023/05/30 08:03:50;;;;;;;4.65;3.10;;;24.50;99.90;;;;;;5000181;28;20034;-49
2023/05/30 08:06:17;;;;;;;4.30;3.20;;;24.70;99.90;;;;;;5010236;28;20041;-49
2023/05/30 08:08:43;;;;;;;5.03;3.00;;;24.90;99.90;;;;;;4990467;28;20117;-49
2023/05/30 08:11:10;;;;;;;3.88;3.20;;;;;;;;;;4992929;28;20026;-49
2023/05/30 08:13:36;;;;;;;4.63;2.95;;;;;;;;;;4992668;28;20023;-46
2023/05/30 08:16:02;;;;;;;5.35;3.33;;;;;;;;;;4992910;28;20026;-48
2023/05/30 08:18:32;;;;;;;4.80;3.40;;;;;;;;;;5010348;28;20072;-49
2023/05/30 08:21:01;;;;;;;4.32;3.03;;;;;;;;;;5009802;28;20056;-47
2023/05/30 08:23:27;;;;;;;5.80;3.58;;;;;;;;;;5013245;28;20062;-48
2023/05/30 08:25:54;;;;;;;4.80;3.05;;;;;;;;;;5015980;28;20037;-47
2023/05/30 08:28:21;;;;;;;5.00;3.22;;;;;;;;;;5005853;28;20026;-49
2023/05/30 08:30:48;;;;;;;3.40;2.90;;;;;;;;;;4996147;28;20125;-48
2023/05/30 08:33:18;;;;;;;5.57;3.60;;;;;;;;;;4996230;28;20110;-49
2023/05/30 08:35:45;;;;;;;4.90;3.30;;;;;;;;;;5011261;28;20030;-49
2023/05/30 08:38:11;;;;;;;4.07;3.03;;;;;;;;;;5015859;28;20034;-49
2023/05/30 08:40:41;;;;;;;4.65;3.22;;;;;;;;;;5013209;28;20046;-49
2023/05/30 08:43:07;;;;;;;6.72;4.10;;;;;;;;;;5015787;28;20038;-47
2023/05/30 08:45:33;;;;;;;4.50;3.47;;;;;;;;;;5015552;28;20042;-48
2023/05/30 08:48:00;;;;;;;4.72;3.22;;;;;;;;;;5013547;28;20042;-50
2023/05/30 08:50:26;;;;;;;5.05;2.90;;;;;;;;;;5019972;28;20045;-47
2023/05/30 08:52:53;;;;;;;4.53;2.90;;;;;;;;;;5054951;28;20028;-50
2023/05/30 08:55:26;;;;;;;3.92;2.95;;;;;;;;;;5036269;28;20032;-48
2023/05/30 08:58:04;;;;;;;4.40;3.20;;;;;;;;;;5034973;28;20032;-50
2023/05/30 09:00:31;;;;;;;5.38;3.97;;;;;;;;;;5015978;28;20041;-47
2023/05/30 09:02:58;;;;;;;4.43;3.17;;;26.00;99.90;;;;;;5034884;28;20370;-47
2023/05/30 09:05:24;;;;;;;3.63;2.78;;;26.10;99.90;;;;;;5035275;28;20029;-47
2023/05/30 09:07:51;;;;;;;4.72;2.55;;;25.90;99.90;;;;;;5034714;28;20033;-47
2023/05/30 09:10:17;;;;;;;3.55;2.63;;;;;;;;;;5035226;28;20049;-48
2023/05/30 09:12:43;;;;;;;3.55;2.53;;;26.40;99.90;;;;;;5034408;28;20040;-46
2023/05/30 09:15:10;;;;;;;4.13;2.88;;;26.20;99.90;;;;;;5037605;28;20033;-48
2023/05/30 09:17:36;;;;;;;3.47;2.70;;;26.60;99.90;;;;;;5052330;28;20503;-48
2023/05/30 09:20:02;;;;;;;5.80;2.80;;;26.40;99.90;;;;;;5054610;28;20033;-48
2023/05/30 09:22:28;;;;;;;4.80;3.40;;;27.00;99.90;;;;;;5036914;28;20080;-49
2023/05/30 09:24:57;;;;;;;4.43;3.72;;;27.00;99.90;;;;;;5052455;28;20060;-47
2023/05/30 09:27:24;;;;;;;4.78;3.55;;;27.30;99.90;;;;;;5054291;28;20075;-48
2023/05/30 09:29:50;;;;;;;4.93;3.35;;;27.00;99.90;;;;;;5054650;28;20029;-47
2023/05/30 09:32:16;;;;;;;4.40;3.55;;;;;;;;;;5054304;28;20388;-47
2023/05/30 09:34:55;;;;;;;6.47;3.30;;;27.40;99.90;;;;;;5051788;28;20484;-50
2023/05/30 09:37:21;;;;;;;5.15;3.25;;;28.00;99.90;;;;;;5054137;28;20032;-48
2023/05/30 09:40:07;;;;;;;4.10;3.00;;;28.20;99.90;;;;;;5035320;28;20033;-50
2023/05/30 09:42:48;;;;;;;4.63;3.33;;;28.50;99.90;;;;;;5053988;28;20025;-49
2023/05/30 09:45:15;;;;;;;4.93;3.60;;;28.50;99.90;;;;;;5054319;28;20060;-49
2023/05/30 09:47:44;;;;;;;6.03;3.20;;;28.20;99.90;;;;;;5052933;28;20083;-47
2023/05/30 09:50:12;;;;;;;4.13;2.90;;;27.90;99.90;;;;;;5053740;28;20502;-49
2023/05/30 09:52:39;;;;;;;7.55;3.50;;;27.70;99.90;;;;;;5054127;28;20041;-47
2023/05/30 09:55:06;;;;;;;8.23;3.25;;;27.60;99.90;;;;;;5054114;28;20504;-47
2023/05/30 09:57:40;;;;;;;3.13;2.42;;;27.40;99.90;;;;;;5035327;28;20123;-48
2023/05/30 10:00:11;;;;;;;4.65;3.20;;;27.50;99.90;;;;;;5054043;28;20068;-47
2023/05/30 10:02:41;;;;;;;4.10;2.75;;;27.90;99.90;;;;;;5035244;28;20064;-49
2023/05/30 10:05:26;;;;;;;4.13;2.67;;;28.30;99.90;;;;;;5052779;28;20037;-48
2023/05/30 10:07:54;;;;;;;4.88;2.92;;;28.30;99.90;;;;;;5053578;28;20036;-50
2023/05/30 10:10:20;;;;;;;3.95;2.97;;;28.10;99.90;;;;;;5053840;28;20032;-47
2023/05/30 10:12:52;;;;;;;3.95;2.92;;;28.10;99.90;;;;;;5053796;28;20614;-49
2023/05/30 10:15:19;;;;;;;6.72;2.75;;;28.70;99.90;;;;;;5053084;28;20032;-48
2023/05/30 10:18:09;;;;;;;5.85;2.75;;;;;;;;;;5053335;28;20094;-46
2023/05/30 10:20:43;;;;;;;4.00;2.75;;;29.40;99.90;;;;;;5011212;28;20066;-49
2023/05/30 10:23:12;;;;;;;4.43;2.92;;;29.70;99.90;;;;;;5011335;28;20077;-48
2023/05/30 10:25:43;;;;;;;4.28;3.03;;;29.90;99.90;;;;;;5008629;28;20088;-47
2023/05/30 10:28:15;;;;;;;5.15;2.80;;;30.10;99.90;;;;;;4953507;28;20041;-48
2023/05/30 10:30:41;;;;;;;4.88;2.63;;;;;;;;;;4991440;28;20569;-48
2023/05/30 10:33:09;;;;;;;4.57;3.20;;;;;;;;;;4976490;28;20042;-50
2023/05/30 10:35:35;;;;;;;4.18;3.30;;;;;;;;;;5010975;28;20030;-47
2023/05/30 10:38:02;;;;;;;3.30;2.60;;;;;;;;;;4976277;28;20037;-49
2023/05/30 10:40:44;;;;;;;3.80;3.05;;;;;;;;;;5011038;28;20121;-48
2023/05/30 10:43:26;;;;;;;3.90;3.05;;;;;;;;;;5010976;28;20041;-49
2023/05/30 10:45:55;;;;;;;3.83;2.95;;;;;;;;;;5010217;28;20034;-47
2023/05/30 10:48:49;;;;;;;4.45;2.55;;;30.40;99.90;;;;;;5010794;28;20071;-48
2023/05/30 10:51:15;;;;;;;3.35;2.50;;;30.00;99.90;;;;;;5010416;28;20133;-50
2023/05/30 10:53:42;;;;;;;4.82;2.97;;;29.00;99.90;;;;;;4993701;28;20037;-48
2023/05/30 10:56:40;;;;;;;3.90;2.80;;;28.80;99.90;;;;;;5010703;28;20034;-48
2023/05/30 10:59:23;;;;;;;5.57;3.00;;;28.90;99.90;;;;;;4952169;28;20169;-47
2023/05/30 11:02:06;;;;;;;4.30;3.17;;;28.60;99.90;;;;;;4952294;28;20043;-50
2023/05/30 11:04:34;;;;;;;3.90;2.88;;;28.20;99.90;;;;;;4952141;29;20153;-49
2023/05/30 11:07:04;;;;;;;4.07;3.50;;;28.20;99.90;;;;;;4952115;28;20067;-47
2023/05/30 11:09:30;;;;;;;4.97;3.22;;;28.20;99.90;;;;;;4952005;29;20046;-48
2023/05/30 11:11:57;;;;;;;4.57;3.05;;;28.70;99.90;;;;;;4952175;28;20049;-48
2023/05/30 11:14:28;;;;;;;4.70;2.92;;;29.20;99.90;;;;;;4935858;29;20067;-47
2023/05/30 11:16:54;;;;;;;3.80;2.77;;;29.30;99.90;;;;;;4952094;28;20042;-50
2023/05/30 11:19:24;;;;;;;3.60;2.60;;;29.20;99.90;;;;;;4951875;28;20319;-50
2023/05/30 11:21:54;;;;;;;4.60;3.00;;;29.60;99.90;;;;;;4951970;28;20514;-47
2023/05/30 11:24:21;;;;;;;3.10;2.80;;;;;;;;;;4951915;28;20043;-48
2023/05/30 11:27:06;;;;;;;4.32;3.17;;;30.20;99.90;;;;;;4952033;28;20050;-47
2023/05/30 11:29:44;;;;;;;5.75;3.65;;;;;;;;;;4962105;28;20042;-50
2023/05/30 11:32:10;;;;;;;4.07;3.08;;;;;;;;;;4988634;28;20069;-48
2023/05/30 11:34:37;;;;;;;3.95;2.85;;;;;;;;;;4980296;28;20041;-48
2023/05/30 11:37:03;;;;;;;3.65;3.30;;;;;;;;;;5032257;28;20033;-50
2023/05/30 11:39:34;;;;;;;5.15;3.50;;;30.30;99.90;;;;;;5032078;28;20087;-49
2023/05/30 11:42:01;;;;;;;4.50;3.17;;;30.40;99.90;;;;;;5013202;28;20048;-48
2023/05/30 11:44:31;;;;;;;4.18;3.00;;;30.40;99.90;;;;;;5031830;28;20113;-48
2023/05/30 11:47:06;;;;;;;5.57;3.30;;;;;;;;;;5032099;28;20087;-48
2023/05/30 11:49:33;;;;;;;4.70;2.97;;;;;;;;;;4997084;28;20037;-49
2023/05/30 11:51:59;;;;;;;3.47;2.78;;;;;;;;;;5031761;28;20137;-49
2023/05/30 11:54:27;;;;;;;3.17;2.50;;;;;;;;;;5031912;28;20021;-47
2023/05/30 11:56:54;;;;;;;3.42;2.83;;;;;;;;;;5032221;28;20457;-48
2023/05/30 11:59:21;;;;;;;3.40;2.83;;;;;;;;;;5013554;28;20117;-46
2023/05/30 12:01:51;;;;;;;4.25;2.78;;;;;;;;;;5013599;28;20501;-49
2023/05/30 12:04:20;;;;;;;3.70;2.83;;;30.50;99.90;;;;;;5013598;28;20082;-46
2023/05/30 12:06:46;;;;;;;2.63;2.42;;;30.40;99.90;;;;;;5013761;28;20049;-48
2023/05/30 12:09:12;;;;;;;3.28;2.17;;;30.20;99.90;;;;;;4980449;28;20091;-49
2023/05/30 12:11:38;;;;;;;5.43;2.50;;;29.90;99.90;;;;;;5013513;28;20026;-49
2023/05/30 12:14:03;;;;;;;2.70;2.10;;;29.80;99.90;;;;;;5013602;28;20056;-49
2023/05/30 12:16:29;;;;;;;3.67;2.50;;;29.60;99.90;;;;;;5013406;28;20081;-49
2023/05/30 12:18:57;;;;;;;5.72;2.70;;;;;;;;;;5013415;28;20071;-49
2023/05/30 12:21:23;;;;;;;3.35;2.50;;;29.10;99.90;;;;;;5013164;28;20045;-49
2023/05/30 12:23:48;;;;;;;3.83;2.38;;;29.10;99.90;;;;;;5013426;28;20022;-49
2023/05/30 12:26:18;;;;;;;3.28;2.22;;;29.30;99.90;;;;;;4997024;28;20038;-49
2023/05/30 12:28:47;;;;;;;3.33;2.38;;;29.20;99.90;;;;;;4980707;28;20414;-47
2023/05/30 12:31:23;;;;;;;3.95;2.17;;;29.10;99.90;;;;;;5032661;28;20037;-49
2023/05/30 12:33:49;;;;;;;4.47;2.25;;;28.60;99.90;;;;;;5045184;28;20033;-48
2023/05/30 12:36:15;;;;;;;3.92;2.80;;;28.60;99.90;;;;;;5029717;28;20042;-49
2023/05/30 12:38:41;;;;;;;4.15;2.50;;;28.50;99.90;;;;;;5006651;28;20025;-46
2023/05/30 12:41:07;;;;;;;3.22;2.42;;;28.60;99.90;;;;;;5035646;28;20038;-50
2023/05/30 12:43:32;;;;;;;3.28;2.67;;;28.70;99.90;;;;;;5040830;28;20084;-48
2023/05/30 12:46:05;;;;;;;3.42;2.55;;;28.60;99.90;;;;;;5056422;28;20035;-47
2023/05/30 12:48:31;;;;;;;2.45;2.08;;;28.50;99.90;;;;;;5055975;28;20033;-49
2023/05/30 12:50:58;;;;;;;3.25;2.30;;;28.80;99.90;;;;;;5056055;28;20049;-48
2023/05/30 12:53:24;;;;;;;3.20;2.13;;;29.20;99.90;;;;;;5056233;28;20041;-51
2023/05/30 12:55:50;;;;;;;4.47;3.38;;;29.20;99.90;;;;;;5054181;28;20112;-47
2023/05/30 12:58:15;;;;;;;3.42;2.83;;;29.30;99.90;;;;;;5055877;28;20098;-48
2023/05/30 13:00:41;;;;;;;3.95;3.03;;;;;;;;;;5037442;28;20033;-50
2023/05/30 13:03:07;;;;;;;8.10;4.05;;;30.20;99.90;;;;;;5053079;28;20040;-48
2023/05/30 13:05:35;;;;;;;3.55;2.70;;;;;;;;;;5054522;28;20337;-50
2023/05/30 13:08:01;;;;;;;7.85;3.55;;;;;;;;;;5055777;28;20082;-49
2023/05/30 13:10:27;;;;;;;5.53;3.50;;;;;;;;;;5036910;28;20068;-50
2023/05/30 13:12:53;;;;;;;5.30;3.70;;;;;;;;;;5055822;28;20028;-48